Warning: Javascript must be enabled to use all the features on this page!


Page Loading - Please Wait...

Click to hideNews Bulletins

Peak Streamflow for the Nation

USGS 01435000 NEVERSINK RIVER NEAR CLARYVILLE NY

Sullivan County, New York
Hydrologic Unit Code 02040104
Latitude  41°53'23.8", Longitude  74°35'23.3" NAD83
Drainage area 66.6  square miles
Gage datum 1,521.67 feet above NAVD88
Output formats
Table
Graph
Tab-separated file
peakfq (watstore) format
Reselect output format
Water
Year
Date Gage
Height
(feet)
Stream-
flow
(cfs)
1938 1938-07-22 10.053 12,400
1939 1938-12-06 6.223 6,210
1940 1940-04-08 5.413 5,070
1941 1940-12-29 4.773 4,180
1942 1941-12-24 9.423 10,000
1943 1942-12-30 4.753 3,650
1944 1943-11-09 6.233 4,840
1945 1945-07-15 6.093 4,650
1946 1946-03-09 5.723 4,320
1947 1947-04-06 4.763 3,210
1948 1948-03-22 6.412,3 5,530
1949 1948-12-30 7.653 7,260
1951 1950-11-25 9.003,6 23,4007
1952 1952-07-10 7.833 10,200
1953 1952-12-11 6.773 7,440
1954 1954-03-01 5.603 3,890
1955 1955-08-13 7.323 9,3509
1956 1955-10-15 7.503 9,950
1957 1957-01-23 3.993 2,240
1958 1957-12-21 6.953 8,230
1959 1959-04-02 4.843 4,250
1960 1959-10-24 5.952,3 6,360
1961 1961-04-25 5.013 4,050
1962 1962-04-07 5.363 4,650
1963 1963-08-01 4.043 2,520
1964 1963-11-07 6.243 6,330
1965 1965-02-08 3.813 2,190
1966 1966-03-24 3.733 2,090
1967 1966-11-03 3.733 2,090
1968 1968-04-24 4.933 3,910
1969 1969-07-28 7.483 9,880
1970 1970-04-02 4.093 2,940
1971 1970-10-23 5.863 6,120
1972 1972-06-22 6.143 6,6809
1973 1973-06-29 6.283 7,040
1974 1973-12-21 5.543 5,480
1975 1974-12-08 6.983,6 7,010
1976 1976-01-27 5.912,3 5,330
1977 1977-03-13 7.073 10,000
1978 1977-10-01 6.203 7,260
1979 1979-09-06 7.483 11,700
1980 1980-03-21 12.666 15,600
1981 1981-02-20 12.44 14,400
1982 1982-04-18 10.95 8,050
1983 1983-02-03 9.94 4,810
1984 1984-04-05 12.28 10,700
1985 1985-09-27 11.02 7,540
1986 1986-03-15 10.19 4,920
1987 1987-04-04 13.26 19,300
1988 1988-03-26 9.69 3,510
1989 1989-05-06 10.92 6,990
1990 1989-10-20 10.23 4,830
1991 1990-11-10 10.50 5,610
1992 1992-06-06 9.90 3,990
1993 1993-04-16 10.65 6,080
1994 1993-11-28 11.13 7,760
1995 1995-03-08 10.00 4,140
1996 1996-01-19 13.10 12,700
1997 1996-11-09 12.57 10,400
1998 1998-01-08 10.95 5,280
1999 1999-09-16 12.10 8,8309
2000 2000-07-15 11.00 5,410
2001 2000-12-17 12.85 11,800
2002 2002-09-28 8.80 1,400
2003 2003-09-23 10.82 4,930
2004 2004-09-18 11.55 6,960
2005 2005-04-02 13.87 17,200
2006 2006-06-28 12.79 11,500
2007 2007-04-16 10.85 5,070
2008 2008-03-08 11.17 5,920
2009 2008-12-12 11.32 6,340
2010 2010-03-23 11.69 7,600
2011 2011-08-28 14.64 20,9009
2012 2012-09-18 14.09 17,800
2013 2013-03-12 9.76 3,830
2014 2014-07-13 9.57 3,660
2015 2015-09-30 8.07 1,770
2016 2016-02-25 9.97 4,260
2017 2017-02-25 8.51 2,260
2018 2018-08-17 10.71 5,500
2019 2019-01-24 9.88 4,130
2020 2019-11-01 11.48 8,530
2021 2020-12-25 11.652 9,100
?
  Peak Gage-Height Qualification Codes.
?
  Peak Streamflow Qualification Codes.